Crisp, Illinois
Current Conditions -  °F | °C
As of 2:15 PM on Monday 24 Nov 2014 (Local Time) from KFWC Reporting Station
Overcast Overcast  
Wind Chill: 41°   Ceiling: 4000
Heat Index: 45°   Visibility: 10mi
Dew Point: 32°   Wind: 7mph
Humidity: 60%   Direction: 250°WSW
Pressure: 29.75"   Gusts: NA
Location:  38.3069°N, 88.55°W
Report Text: KFWC 242015Z AUTO 25006KT 10SM OVC040 07/00 A2975 RMK AO1 T00701002
Loading
Personal Weather Stations






























Interactive Weather Map New forecast layout! Learn more

10-Day Weather Forecast

Advertisements
Track Severe Weather on mobile